Time;durP1;ratioP1;P1;durP2;ratioP2;P2;SDS_P1;SDS_P2;PMS_P1;PMS_P2;Temp;Humidity;BMP_temperature;BMP_pressure;BME280_temperature;BME280_humidity;BME280_pressure;Samples;Min_cycle;Max_cycle;Signal;HPM_P1;HPM_P2
2021/10/19 00:00:16;;;;;;;1999.90;999.90;;;;;;;;;;5018582;28;20029;-81
2021/10/19 00:02:42;;;;;;;1999.90;999.90;;;;;;;;;;5018775;28;20088;-81
2021/10/19 00:05:09;;;;;;;1999.90;999.90;;;;;;;;;;5018951;28;20540;-81
2021/10/19 00:07:35;;;;;;;1999.90;999.90;;;;;;;;;;5018437;28;20527;-81
2021/10/19 00:10:01;;;;;;;1999.90;999.90;;;;;;;;;;5036295;28;20611;-81
2021/10/19 00:12:27;;;;;;;1999.90;999.90;;;;;;;;;;5018924;28;20021;-81
2021/10/19 00:14:53;;;;;;;1999.90;999.90;;;;;;;;;;5018515;28;20484;-82
2021/10/19 00:17:19;;;;;;;1999.90;999.90;;;;;;;;;;5018646;28;20092;-80
2021/10/19 00:19:45;;;;;;;1999.90;999.90;;;;;;;;;;5036016;28;20410;-80
2021/10/19 00:22:12;;;;;;;1999.90;999.90;;;;;;;;;;5018559;28;20029;-82
2021/10/19 00:24:38;;;;;;;1999.90;999.90;;;;;;;;;;5018325;28;20021;-81
2021/10/19 00:27:05;;;;;;;1999.90;999.90;;;;;;;;;;5018232;28;20041;-82
2021/10/19 00:29:31;;;;;;;1999.90;999.90;;;;;;;;;;5018515;28;20041;-81
2021/10/19 00:31:58;;;;;;;1999.90;999.90;;;;;;;;;;5018326;28;20037;-81
2021/10/19 00:34:24;;;;;;;1999.90;999.90;;;;;;;;;;5018114;28;20032;-82
2021/10/19 00:36:50;;;;;;;1999.90;999.90;;;;;;;;;;5036306;28;20026;-83
2021/10/19 00:39:16;;;;;;;1999.90;999.90;;;;;;;;;;5017920;28;20029;-82
2021/10/19 00:41:43;;;;;;;1999.90;999.90;;;;;;;;;;5017996;28;20075;-81
2021/10/19 00:44:09;;;;;;;1999.90;999.90;;;;;;;;;;5018040;28;20457;-83
2021/10/19 00:46:35;;;;;;;1999.90;999.90;;;;;;;;;;5018023;28;20049;-83
2021/10/19 00:49:01;;;;;;;1999.90;999.90;;;;;;;;;;5017882;28;20028;-81
2021/10/19 00:51:28;;;;;;;1999.90;999.90;;;;;;;;;;5016947;28;20064;-81
2021/10/19 00:53:54;;;;;;;1999.90;999.90;;;;;;;;;;5017800;28;20056;-81
2021/10/19 00:56:20;;;;;;;1999.90;999.90;;;;;;;;;;5035177;28;20109;-81
2021/10/19 00:58:46;;;;;;;1999.90;999.90;;;;;;;;;;5017811;28;20060;-81
2021/10/19 01:01:14;;;;;;;1999.90;999.90;;;;;;;;;;5017702;28;20076;-81
2021/10/19 01:03:40;;;;;;;1999.90;999.90;;;;;;;;;;5017406;28;20036;-81
2021/10/19 01:06:07;;;;;;;1999.90;999.90;;;;;;;;;;5017418;28;20021;-83
2021/10/19 01:08:35;;;;;;;1999.90;999.90;;;;;;;;;;5017512;28;20137;-83
2021/10/19 01:11:03;;;;;;;1999.90;999.90;;;;;;;;;;5017669;28;20025;-84
2021/10/19 01:13:29;;;;;;;1999.90;999.90;;;;;;;;;;5017525;28;20030;-81
2021/10/19 01:16:03;;;;;;;1999.90;999.90;;;;;;;;;;5017504;28;20025;-81
2021/10/19 01:18:29;;;;;;;1999.90;999.90;;;;;;;;;;5017339;28;20091;-81
2021/10/19 01:20:55;;;;;;;1999.90;999.90;;;;;;;;;;5034988;28;20111;-82
2021/10/19 01:23:21;;;;;;;1999.90;999.90;;;;;;;;;;5017362;28;20030;-81
2021/10/19 01:25:48;;;;;;;1999.90;999.90;;;;;;;;;;5017402;28;20064;-81
2021/10/19 01:28:14;;;;;;;1999.90;999.90;;;;;;;;;;5017585;28;20049;-81
2021/10/19 01:30:44;;;;;;;1999.90;999.90;;;;;;;;;;5035116;28;20025;-81
2021/10/19 01:33:11;;;;;;;1999.90;999.90;;;;;;;;;;5035111;28;20053;-81
2021/10/19 01:35:38;;;;;;;1999.90;999.90;;;;;;;;;;5017040;28;20029;-81
2021/10/19 01:38:05;;;;;;;1999.90;999.90;;;;;;;;;;5017012;28;20041;-81
2021/10/19 01:40:32;;;;;;;1999.90;999.90;;;;;;;;;;5035063;28;20048;-80
2021/10/19 01:42:58;;;;;;;1999.90;999.90;;;;;;;;;;5016838;28;20382;-81
2021/10/19 01:45:24;;;;;;;1999.90;999.90;;;;;;;;;;5016798;28;20029;-80
2021/10/19 01:47:50;;;;;;;1999.90;999.90;;;;;;;;;;5016895;28;20108;-83
2021/10/19 01:50:17;;;;;;;1999.90;999.90;;;;;;;;;;5034694;28;20025;-81
2021/10/19 01:52:44;;;;;;;1999.90;999.90;;;;;;;;;;5034579;28;20105;-81
2021/10/19 01:55:11;;;;;;;1999.90;999.90;;;;;;;;;;5016697;28;20057;-80
2021/10/19 01:57:37;;;;;;;1999.90;999.90;;;;;;;;;;5017030;28;20029;-81
2021/10/19 02:00:08;;;;;;;1999.90;999.90;;;;;;;;;;5016437;28;20412;-83
2021/10/19 02:02:34;;;;;;;1999.90;999.90;;;;;;;;;;5016306;28;20021;-83
2021/10/19 02:05:00;;;;;;;1999.90;999.90;;;;;;;;;;5033963;28;20495;-81
2021/10/19 02:07:26;;;;;;;1999.90;999.90;;;;;;;;;;5033798;28;20046;-80
2021/10/19 02:09:52;;;;;;;1999.90;999.90;;;;;;;;;;5016365;28;20025;-82
2021/10/19 02:12:18;;;;;;;1999.90;999.90;;;;;;;;;;5016516;28;20028;-82
2021/10/19 02:14:44;;;;;;;1999.90;999.90;;;;;;;;;;5034011;28;20029;-81
2021/10/19 02:17:10;;;;;;;1999.90;999.90;;;;;;;;;;5016200;28;20034;-81
2021/10/19 02:19:36;;;;;;;1999.90;999.90;;;;;;;;;;5016165;28;20029;-81
2021/10/19 02:22:02;;;;;;;1999.90;999.90;;;;;;;;;;5016205;28;20029;-81
2021/10/19 02:24:28;;;;;;;1999.90;999.90;;;;;;;;;;5016154;28;20080;-81
2021/10/19 02:26:54;;;;;;;1999.90;999.90;;;;;;;;;;5016126;28;20037;-81
2021/10/19 02:29:20;;;;;;;1999.90;999.90;;;;;;;;;;5016121;28;20524;-81
2021/10/19 02:31:47;;;;;;;1999.90;999.90;;;;;;;;;;5016003;28;20465;-81
2021/10/19 02:34:15;;;;;;;1999.90;999.90;;;;;;;;;;5016351;28;20027;-82
2021/10/19 02:36:41;;;;;;;1999.90;999.90;;;;;;;;;;5015705;28;20061;-82
2021/10/19 02:39:07;;;;;;;1999.90;999.90;;;;;;;;;;5015796;28;20061;-81
2021/10/19 02:41:34;;;;;;;1999.90;999.90;;;;;;;;;;5016263;28;20061;-81
2021/10/19 02:44:00;;;;;;;1999.90;999.90;;;;;;;;;;5015929;28;20018;-81
2021/10/19 02:46:26;;;;;;;1999.90;999.90;;;;;;;;;;5015909;28;20021;-80
2021/10/19 02:48:53;;;;;;;1999.90;999.90;;;;;;;;;;5016167;28;20116;-81
2021/10/19 02:51:19;;;;;;;1999.90;999.90;;;;;;;;;;5015919;28;20137;-81
2021/10/19 02:53:46;;;;;;;1999.90;999.90;;;;;;;;;;5015925;28;20022;-81
2021/10/19 02:56:12;;;;;;;1999.90;999.90;;;;;;;;;;5016010;28;20120;-83
2021/10/19 02:58:38;;;;;;;1999.90;999.90;;;;;;;;;;5015705;28;20532;-85
2021/10/19 03:01:04;;;;;;;1999.90;999.90;;;;;;;;;;5015830;28;20476;-82
2021/10/19 03:03:30;;;;;;;1999.90;999.90;;;;;;;;;;5015960;28;20051;-81
2021/10/19 03:05:56;;;;;;;1999.90;999.90;;;;;;;;;;5015791;28;20457;-82
2021/10/19 03:08:22;;;;;;;1999.90;999.90;;;;;;;;;;5015475;28;20145;-82
2021/10/19 03:10:49;;;;;;;1999.90;999.90;;;;;;;;;;5015853;28;20480;-84
2021/10/19 03:13:15;;;;;;;1999.90;999.90;;;;;;;;;;5033215;28;20400;-83
2021/10/19 03:15:41;;;;;;;1999.90;999.90;;;;;;;;;;5019692;28;20065;-81
2021/10/19 03:18:08;;;;;;;1999.90;999.90;;;;;;;;;;5019569;28;20044;-82
2021/10/19 03:20:34;;;;;;;1999.90;999.90;;;;;;;;;;5019706;28;20055;-81
2021/10/19 03:23:00;;;;;;;1999.90;999.90;;;;;;;;;;5019852;28;20025;-81
2021/10/19 03:25:26;;;;;;;1999.90;999.90;;;;;;;;;;5019552;28;20033;-83
2021/10/19 03:27:52;;;;;;;1999.90;999.90;;;;;;;;;;5019402;28;20120;-82
2021/10/19 03:30:18;;;;;;;1999.90;999.90;;;;;;;;;;5019727;28;20429;-83
2021/10/19 03:32:44;;;;;;;1999.90;999.90;;;;;;;;;;5019158;28;20042;-82
2021/10/19 03:35:11;;;;;;;1999.90;999.90;;;;;;;;;;5019463;28;20030;-81
2021/10/19 03:37:37;;;;;;;1999.90;999.90;;;;;;;;;;5019294;28;20911;-82
2021/10/19 03:40:04;;;;;;;1999.90;999.90;;;;;;;;;;5018950;28;20027;-82
2021/10/19 03:42:30;;;;;;;1999.90;999.90;;;;;;;;;;5019216;28;20387;-83
2021/10/19 03:44:56;;;;;;;1999.90;999.90;;;;;;;;;;5019175;28;20037;-82
2021/10/19 03:47:22;;;;;;;1999.90;999.90;;;;;;;;;;5019170;28;20034;-82
2021/10/19 03:49:48;;;;;;;1999.90;999.90;;;;;;;;;;5019360;28;20069;-80
2021/10/19 03:52:14;;;;;;;1999.90;999.90;;;;;;;;;;5020886;28;20355;-83
2021/10/19 03:54:40;;;;;;;1999.90;999.90;;;;;;;;;;5020662;28;20025;-79
2021/10/19 03:57:07;;;;;;;1999.90;999.90;;;;;;;;;;5021702;28;20079;-87
2021/10/19 03:59:33;;;;;;;1999.90;999.90;;;;;;;;;;5019671;28;20120;-81
2021/10/19 04:01:59;;;;;;;1999.90;999.90;;;;;;;;;;5024363;28;20022;-85
2021/10/19 04:04:25;;;;;;;1999.90;999.90;;;;;;;;;;5019358;28;20030;-85
2021/10/19 04:06:51;;;;;;;1999.90;999.90;;;;;;;;;;5037061;28;20103;-84
2021/10/19 04:09:17;;;;;;;1999.90;999.90;;;;;;;;;;5019601;28;20385;-86
2021/10/19 04:11:44;;;;;;;1999.90;999.90;;;;;;;;;;5019676;28;20137;-85
2021/10/19 04:14:10;;;;;;;1999.90;999.90;;;;;;;;;;5019278;28;20064;-82
2021/10/19 04:16:37;;;;;;;1999.90;999.90;;;;;;;;;;5018413;28;20029;-81
2021/10/19 04:19:03;;;;;;;1999.90;999.90;;;;;;;;;;5018711;28;20081;-81
2021/10/19 04:21:29;;;;;;;1999.90;999.90;;;;;;;;;;5018377;28;20148;-83
2021/10/19 04:23:55;;;;;;;1999.90;999.90;;;;;;;;;;5018442;28;20056;-82
2021/10/19 04:26:21;;;;;;;1999.90;999.90;;;;;;;;;;5017062;28;20021;-81
2021/10/19 04:28:47;;;;;;;1999.90;999.90;;;;;;;;;;5036223;28;20029;-81
2021/10/19 04:31:14;;;;;;;1999.90;999.90;;;;;;;;;;5018498;28;20068;-82
2021/10/19 04:33:40;;;;;;;1999.90;999.90;;;;;;;;;;5018239;28;20033;-80
2021/10/19 04:36:06;;;;;;;1999.90;999.90;;;;;;;;;;5018441;28;20025;-82
2021/10/19 04:38:32;;;;;;;1999.90;999.90;;;;;;;;;;5018613;28;20038;-81
2021/10/19 04:40:59;;;;;;;1999.90;999.90;;;;;;;;;;5035973;28;20100;-83
2021/10/19 04:43:25;;;;;;;1999.90;999.90;;;;;;;;;;5018223;28;20087;-84
2021/10/19 04:45:54;;;;;;;1999.90;999.90;;;;;;;;;;5018106;28;20029;-85
2021/10/19 04:48:20;;;;;;;1999.90;999.90;;;;;;;;;;5017797;28;20397;-83
2021/10/19 04:50:46;;;;;;;1999.90;999.90;;;;;;;;;;5018542;28;20457;-82
2021/10/19 04:53:12;;;;;;;1999.90;999.90;;;;;;;;;;5018269;28;20079;-83
2021/10/19 04:55:38;;;;;;;1999.90;999.90;;;;;;;;;;5017694;28;20033;-83
2021/10/19 04:58:05;;;;;;;1999.90;999.90;;;;;;;;;;5017830;28;20388;-81
2021/10/19 05:00:31;;;;;;;1999.90;999.90;;;;;;;;;;5035056;28;20036;-81
2021/10/19 05:02:57;;;;;;;1999.90;999.90;;;;;;;;;;5035186;28;20029;-81
2021/10/19 05:05:24;;;;;;;1999.90;999.90;;;;;;;;;;5016975;28;20028;-82
2021/10/19 05:07:50;;;;;;;1999.90;999.90;;;;;;;;;;5017441;28;20060;-81
2021/10/19 05:10:17;;;;;;;1999.90;999.90;;;;;;;;;;5017591;28;20028;-80
2021/10/19 05:12:43;;;;;;;1999.90;999.90;;;;;;;;;;5017432;28;20048;-84
2021/10/19 05:15:09;;;;;;;1999.90;999.90;;;;;;;;;;5034919;28;20024;-79
2021/10/19 05:17:35;;;;;;;1999.90;999.90;;;;;;;;;;5016986;28;20037;-80
2021/10/19 05:20:01;;;;;;;1999.90;999.90;;;;;;;;;;5017438;28;20029;-80
2021/10/19 05:22:28;;;;;;;1999.90;999.90;;;;;;;;;;5017363;28;20117;-80
2021/10/19 05:24:54;;;;;;;1999.90;999.90;;;;;;;;;;5017093;28;20061;-81
2021/10/19 05:27:20;;;;;;;1999.90;999.90;;;;;;;;;;5034447;28;20033;-79
2021/10/19 05:29:46;;;;;;;1999.90;999.90;;;;;;;;;;5034042;28;20060;-78
2021/10/19 05:32:12;;;;;;;1999.90;999.90;;;;;;;;;;5015977;28;20060;-78
2021/10/19 05:34:38;;;;;;;1999.90;999.90;;;;;;;;;;5016369;28;20044;-82
2021/10/19 05:37:04;;;;;;;1999.90;999.90;;;;;;;;;;5017077;28;20096;-81
2021/10/19 05:39:30;;;;;;;1999.90;999.90;;;;;;;;;;5017303;28;20028;-80
2021/10/19 05:41:56;;;;;;;1999.90;999.90;;;;;;;;;;5017283;28;20030;-82
2021/10/19 05:44:22;;;;;;;1999.90;999.90;;;;;;;;;;5017118;28;20465;-81
2021/10/19 05:46:48;;;;;;;1999.90;999.90;;;;;;;;;;5017248;28;20022;-81
2021/10/19 05:49:14;;;;;;;1999.90;999.90;;;;;;;;;;5017125;28;20034;-81
2021/10/19 05:51:40;;;;;;;1999.90;999.90;;;;;;;;;;5017319;28;20022;-81
2021/10/19 05:54:07;;;;;;;1999.90;999.90;;;;;;;;;;5016800;28;20484;-80
2021/10/19 05:56:33;;;;;;;1999.90;999.90;;;;;;;;;;5016911;28;20044;-83
2021/10/19 05:58:59;;;;;;;1999.90;999.90;;;;;;;;;;5017003;28;20064;-82
2021/10/19 06:01:25;;;;;;;1999.90;999.90;;;;;;;;;;5016731;28;20025;-81
2021/10/19 06:03:51;;;;;;;1999.90;999.90;;;;;;;;;;5016489;28;20088;-80
2021/10/19 06:06:18;;;;;;;1999.90;999.90;;;;;;;;;;5016246;28;20024;-80
2021/10/19 06:08:44;;;;;;;1999.90;999.90;;;;;;;;;;5016537;28;20037;-80
2021/10/19 06:11:10;;;;;;;1999.90;999.90;;;;;;;;;;5016707;28;20025;-80
2021/10/19 06:13:36;;;;;;;1999.90;999.90;;;;;;;;;;5016422;28;20393;-81
2021/10/19 06:16:02;;;;;;;1999.90;999.90;;;;;;;;;;5016108;28;20036;-80
2021/10/19 06:18:28;;;;;;;1999.90;999.90;;;;;;;;;;5016485;28;20041;-80
2021/10/19 06:20:54;;;;;;;1999.90;999.90;;;;;;;;;;5016834;28;20033;-83
2021/10/19 06:23:21;;;;;;;1999.90;999.90;;;;;;;;;;5016986;28;20024;-82
2021/10/19 06:25:47;;;;;;;1999.90;999.90;;;;;;;;;;5015841;28;20036;-86
2021/10/19 06:28:13;;;;;;;1999.90;999.90;;;;;;;;;;5015270;28;20084;-82
2021/10/19 06:30:39;;;;;;;1999.90;999.90;;;;;;;;;;5015656;28;20022;-85
2021/10/19 06:33:05;;;;;;;1999.90;999.90;;;;;;;;;;5015507;28;20021;-83
2021/10/19 06:35:31;;;;;;;1999.90;999.90;;;;;;;;;;5015268;28;20116;-85
2021/10/19 06:37:57;;;;;;;1999.90;999.90;;;;;;;;;;5016359;28;20064;-84
2021/10/19 06:40:23;;;;;;;1999.90;999.90;;;;;;;;;;5016636;28;20052;-85
2021/10/19 06:42:49;;;;;;;1999.90;999.90;;;;;;;;;;5016509;28;20123;-84
2021/10/19 06:45:15;;;;;;;1999.90;999.90;;;;;;;;;;5016481;28;20063;-81
2021/10/19 06:47:41;;;;;;;1999.90;999.90;;;;;;;;;;5016386;28;20030;-85
2021/10/19 06:50:10;;;;;;;1999.90;999.90;;;;;;;;;;5016330;28;20021;-85
2021/10/19 06:52:36;;;;;;;1999.90;999.90;;;;;;;;;;5016728;28;20033;-84
2021/10/19 06:55:06;;;;;;;1999.90;999.90;;;;;;;;;;5016620;28;20037;-86
2021/10/19 06:57:32;;;;;;;1999.90;999.90;;;;;;;;;;5016606;28;20034;-84
2021/10/19 07:00:00;;;;;;;1999.90;999.90;;;;;;;;;;5016400;28;20037;-83
2021/10/19 07:02:26;;;;;;;1999.90;999.90;;;;;;;;;;5033838;28;20017;-85
2021/10/19 07:04:52;;;;;;;1999.90;999.90;;;;;;;;;;5016518;28;20017;-84
2021/10/19 07:07:18;;;;;;;1999.90;999.90;;;;;;;;;;5016496;28;20052;-85
2021/10/19 07:09:44;;;;;;;1999.90;999.90;;;;;;;;;;5034142;28;20067;-86
2021/10/19 07:12:10;;;;;;;1999.90;999.90;;;;;;;;;;5016520;28;20495;-84
2021/10/19 07:14:36;;;;;;;1999.90;999.90;;;;;;;;;;5016196;28;20112;-84
2021/10/19 07:17:02;;;;;;;1999.90;999.90;;;;;;;;;;5033825;28;20037;-84
2021/10/19 07:19:28;;;;;;;1999.90;999.90;;;;;;;;;;5033680;28;20022;-83
2021/10/19 07:21:54;;;;;;;1999.90;999.90;;;;;;;;;;5016495;28;20124;-86
2021/10/19 07:24:21;;;;;;;1999.90;999.90;;;;;;;;;;5015775;28;20393;-80
2021/10/19 07:26:47;;;;;;;1999.90;999.90;;;;;;;;;;5032995;28;20030;-81
2021/10/19 07:29:13;;;;;;;1999.90;999.90;;;;;;;;;;5015707;28;20028;-83
2021/10/19 07:31:39;;;;;;;1999.90;999.90;;;;;;;;;;5033735;28;20108;-83
2021/10/19 07:34:08;;;;;;;1999.90;999.90;;;;;;;;;;5015798;28;20025;-83
2021/10/19 07:36:34;;;;;;;1999.90;999.90;;;;;;;;;;5033336;28;20032;-81
2021/10/19 07:39:00;;;;;;;1999.90;999.90;;;;;;;;;;5015540;28;20029;-81
2021/10/19 07:41:26;;;;;;;1999.90;999.90;;;;;;;;;;5015687;28;20021;-80
2021/10/19 07:43:52;;;;;;;1999.90;999.90;;;;;;;;;;5032715;28;20381;-80
2021/10/19 07:46:18;;;;;;;1999.90;999.90;;;;;;;;;;5033083;28;20029;-83
2021/10/19 07:48:44;;;;;;;1999.90;999.90;;;;;;;;;;5033720;28;20025;-87
2021/10/19 07:51:10;;;;;;;1999.90;999.90;;;;;;;;;;5016095;28;20374;-87
2021/10/19 07:53:36;;;;;;;1999.90;999.90;;;;;;;;;;5016110;28;20528;-86
2021/10/19 07:56:02;;;;;;;1999.90;999.90;;;;;;;;;;5016414;28;20029;-86
2021/10/19 07:58:28;;;;;;;1999.90;999.90;;;;;;;;;;5034392;28;20029;-84
2021/10/19 08:00:55;;;;;;;1999.90;999.90;;;;;;;;;;5036121;28;20032;-85
2021/10/19 08:03:21;;;;;;;1999.90;999.90;;;;;;;;;;5019645;28;20380;-86
2021/10/19 08:05:47;;;;;;;1999.90;999.90;;;;;;;;;;5020192;28;20079;-87
2021/10/19 08:08:15;;;;;;;1999.90;999.90;;;;;;;;;;5019711;28;20104;-85
2021/10/19 08:10:43;;;;;;;1999.90;999.90;;;;;;;;;;5019619;28;20477;-83
2021/10/19 08:13:09;;;;;;;1999.90;999.90;;;;;;;;;;5037232;28;20033;-83
2021/10/19 08:15:36;;;;;;;1999.90;999.90;;;;;;;;;;5019426;28;20025;-87
2021/10/19 08:18:03;;;;;;;1999.90;999.90;;;;;;;;;;5037374;28;20405;-86
2021/10/19 08:20:30;;;;;;;1999.90;999.90;;;;;;;;;;5019734;28;20021;-86
2021/10/19 08:22:56;;;;;;;1999.90;999.90;;;;;;;;;;5020478;28;20037;-87
2021/10/19 08:25:22;;;;;;;1999.90;999.90;;;;;;;;;;5019924;28;20026;-85
2021/10/19 08:27:49;;;;;;;1999.90;999.90;;;;;;;;;;5020697;28;20056;-82
2021/10/19 08:30:18;;;;;;;1999.90;999.90;;;;;;;;;;5022105;28;20084;-88
2021/10/19 08:32:44;;;;;;;1999.90;999.90;;;;;;;;;;5022731;28;20036;-87
2021/10/19 08:35:10;;;;;;;1999.90;999.90;;;;;;;;;;5021385;28;20025;-80
2021/10/19 08:37:37;;;;;;;1999.90;999.90;;;;;;;;;;5017184;28;20107;-78
2021/10/19 08:40:03;;;;;;;1999.90;999.90;;;;;;;;;;5034170;28;20055;-79
2021/10/19 08:42:29;;;;;;;1999.90;999.90;;;;;;;;;;5016797;28;20030;-79
2021/10/19 08:44:56;;;;;;;1999.90;999.90;;;;;;;;;;5016397;28;20116;-79
2021/10/19 08:47:22;;;;;;;1999.90;999.90;;;;;;;;;;5017037;28;20037;-79
2021/10/19 08:49:48;;;;;;;1999.90;999.90;;;;;;;;;;5016709;28;20112;-79
2021/10/19 08:52:14;;;;;;;1999.90;999.90;;;;;;;;;;5016511;28;20161;-78
2021/10/19 08:54:41;;;;;;;1999.90;999.90;;;;;;;;;;5034222;28;20029;-81
2021/10/19 08:57:13;;;;;;;1999.90;999.90;;;;;;;;;;5016290;28;20025;-82
2021/10/19 08:59:43;;;;;;;1999.90;999.90;;;;;;;;;;5019956;28;20025;-78
2021/10/19 09:02:09;;;;;;;1999.90;999.90;;;;;;;;;;5035760;28;20096;-79
2021/10/19 09:04:35;;;;;;;1999.90;999.90;;;;;;;;;;5016087;28;20034;-77
2021/10/19 09:07:01;;;;;;;1999.90;999.90;;;;;;;;;;5035124;28;20092;-75
2021/10/19 09:09:27;;;;;;;1999.90;999.90;;;;;;;;;;5040705;28;20057;-78
2021/10/19 09:11:54;;;;;;;1999.90;999.90;;;;;;;;;;5033257;28;20026;-77
2021/10/19 09:14:21;;;;;;;1999.90;999.90;;;;;;;;;;5015777;28;20026;-78
2021/10/19 09:16:48;;;;;;;1999.90;999.90;;;;;;;;;;5033406;28;20025;-77
2021/10/19 09:19:16;;;;;;;1999.90;999.90;;;;;;;;;;5033486;28;20465;-77
2021/10/19 09:21:43;;;;;;;1999.90;999.90;;;;;;;;;;5033835;28;20117;-76
2021/10/19 09:24:18;;;;;;;1999.90;999.90;;;;;;;;;;5033649;28;20065;-76
2021/10/19 09:27:00;;;;;;;1999.90;999.90;;;;;;;;;;5015922;28;20021;-76
2021/10/19 09:29:27;;;;;;;1999.90;999.90;;;;;;;;;;5015939;28;20036;-76
2021/10/19 09:31:54;;;;;;;1999.90;999.90;;;;;;;;;;5033437;28;20026;-76
2021/10/19 09:34:20;;;;;;;1999.90;999.90;;;;;;;;;;5033019;28;20092;-78
2021/10/19 09:36:49;;;;;;;1999.90;999.90;;;;;;;;;;5033383;28;20121;-77
2021/10/19 09:39:15;;;;;;;1999.90;999.90;;;;;;;;;;5033110;28;20029;-78
2021/10/19 09:41:41;;;;;;;1999.90;999.90;;;;;;;;;;5015229;28;20171;-75
2021/10/19 09:44:16;;;;;;;1999.90;999.90;;;;;;;;;;5032691;28;20022;-75
2021/10/19 09:46:42;;;;;;;1999.90;999.90;;;;;;;;;;5033175;28;20022;-75
2021/10/19 09:49:09;;;;;;;1999.90;999.90;;;;;;;;;;5032743;28;20040;-75
2021/10/19 09:51:38;;;;;;;1999.90;999.90;;;;;;;;;;5033348;28;20048;-76
2021/10/19 09:54:12;;;;;;;1999.90;999.90;;;;;;;;;;5032957;28;20030;-76
2021/10/19 09:56:40;;;;;;;1999.90;999.90;;;;;;;;;;5033147;28;20021;-81
2021/10/19 09:59:06;;;;;;;1999.90;999.90;;;;;;;;;;5033321;28;20176;-79
2021/10/19 10:01:33;;;;;;;1999.90;999.90;;;;;;;;;;5015161;28;20053;-80
2021/10/19 10:04:00;;;;;;;1999.90;999.90;;;;;;;;;;5015403;28;20025;-78
2021/10/19 10:06:26;;;;;;;1999.90;999.90;;;;;;;;;;5032745;28;20017;-79
2021/10/19 10:08:53;;;;;;;1999.90;999.90;;;;;;;;;;5015184;28;20104;-78
2021/10/19 10:11:21;;;;;;;1999.90;999.90;;;;;;;;;;5014939;28;20473;-79
2021/10/19 10:14:01;;;;;;;1999.90;999.90;;;;;;;;;;5015480;28;20022;-79
2021/10/19 10:16:28;;;;;;;1999.90;999.90;;;;;;;;;;5015300;28;20059;-78
2021/10/19 10:18:54;;;;;;;1999.90;999.90;;;;;;;;;;5032670;28;20045;-80
2021/10/19 10:21:24;;;;;;;1999.90;999.90;;;;;;;;;;5015244;28;20489;-79
2021/10/19 10:24:04;;;;;;;1999.90;999.90;;;;;;;;;;5014225;28;20021;-79
2021/10/19 10:26:31;;;;;;;1999.90;999.90;;;;;;;;;;5032628;28;20025;-80
2021/10/19 10:29:11;;;;;;;1999.90;999.90;;;;;;;;;;5032901;28;20021;-79
2021/10/19 10:31:46;;;;;;;1999.90;999.90;;;;;;;;;;5015043;28;20112;-79
2021/10/19 10:34:12;;;;;;;1999.90;999.90;;;;;;;;;;5014733;28;20069;-80
2021/10/19 10:36:40;;;;;;;1999.90;999.90;;;;;;;;;;5014468;28;20022;-79
2021/10/19 10:39:08;;;;;;;1999.90;999.90;;;;;;;;;;5032267;28;20025;-80
2021/10/19 10:41:44;;;;;;;1999.90;999.90;;;;;;;;;;5014665;28;20424;-80
2021/10/19 10:44:11;;;;;;;1999.90;999.90;;;;;;;;;;5032218;28;20068;-78
2021/10/19 10:46:37;;;;;;;1999.90;999.90;;;;;;;;;;5014931;28;20025;-79
2021/10/19 10:49:06;;;;;;;1999.90;999.90;;;;;;;;;;5014923;28;20116;-78
2021/10/19 10:51:33;;;;;;;1999.90;999.90;;;;;;;;;;5014909;28;20017;-77
2021/10/19 10:54:00;;;;;;;1999.90;999.90;;;;;;;;;;5014837;28;20028;-79
2021/10/19 10:56:26;;;;;;;1999.90;999.90;;;;;;;;;;5014904;28;20053;-80
2021/10/19 10:58:53;;;;;;;1999.90;999.90;;;;;;;;;;5014924;28;20128;-79
2021/10/19 11:01:19;;;;;;;1999.90;999.90;;;;;;;;;;5015148;28;20477;-80
2021/10/19 11:03:46;;;;;;;1999.90;999.90;;;;;;;;;;5032905;28;20380;-78
2021/10/19 11:06:20;;;;;;;1999.90;999.90;;;;;;;;;;5033005;28;20026;-79
2021/10/19 11:08:47;;;;;;;1999.90;999.90;;;;;;;;;;5015452;28;20028;-81
2021/10/19 11:11:24;;;;;;;1999.90;999.90;;;;;;;;;;5032473;28;20036;-90
2021/10/19 11:14:04;;;;;;;1999.90;999.90;;;;;;;;;;5033253;28;20026;-88
2021/10/19 11:16:40;;;;;;;1999.90;999.90;;;;;;;;;;5022176;28;20071;-87
2021/10/19 11:19:13;;;;;;;1999.90;999.90;;;;;;;;;;5022315;28;20041;-88
2021/10/19 11:21:39;;;;;;;1999.90;999.90;;;;;;;;;;5022120;28;20032;-88
2021/10/19 11:24:05;;;;;;;1999.90;999.90;;;;;;;;;;5020244;28;20435;-91
2021/10/19 11:26:34;;;;;;;1999.90;999.90;;;;;;;;;;5018556;28;20025;-92
2021/10/19 11:29:00;;;;;;;1999.90;999.90;;;;;;;;;;5018065;28;20461;-90
2021/10/19 11:31:31;;;;;;;1999.90;999.90;;;;;;;;;;5016960;28;20152;-88
2021/10/19 11:33:57;;;;;;;1999.90;999.90;;;;;;;;;;5016864;28;20060;-88
2021/10/19 11:36:25;;;;;;;1999.90;999.90;;;;;;;;;;5020081;28;20025;-87
2021/10/19 11:38:52;;;;;;;1999.90;999.90;;;;;;;;;;5020495;28;20171;-87
2021/10/19 11:41:21;;;;;;;1999.90;999.90;;;;;;;;;;5020514;28;20424;-88
2021/10/19 11:43:49;;;;;;;1999.90;999.90;;;;;;;;;;5020544;28;20021;-90
2021/10/19 11:46:16;;;;;;;1999.90;999.90;;;;;;;;;;5020205;28;20120;-90
2021/10/19 11:48:43;;;;;;;1999.90;999.90;;;;;;;;;;5020592;28;20113;-92
2021/10/19 11:51:13;;;;;;;1999.90;999.90;;;;;;;;;;5020952;28;20032;-91
2021/10/19 11:53:40;;;;;;;1999.90;999.90;;;;;;;;;;5021290;28;20049;-90
2021/10/19 11:56:08;;;;;;;1999.90;999.90;;;;;;;;;;5020801;28;20064;-90
2021/10/19 11:58:34;;;;;;;1999.90;999.90;;;;;;;;;;5020976;28;20045;-88
2021/10/19 12:01:01;;;;;;;1999.90;999.90;;;;;;;;;;5021165;28;20060;-89
2021/10/19 12:03:33;;;;;;;1999.90;999.90;;;;;;;;;;5020704;28;20025;-88
2021/10/19 12:05:59;;;;;;;1999.90;999.90;;;;;;;;;;5021301;28;20509;-84
2021/10/19 12:08:30;;;;;;;1999.90;999.90;;;;;;;;;;5019224;28;20045;-83
2021/10/19 12:10:56;;;;;;;1999.90;999.90;;;;;;;;;;5018925;28;20040;-77
2021/10/19 12:13:26;;;;;;;1999.90;999.90;;;;;;;;;;5036228;28;20025;-89
2021/10/19 12:15:56;;;;;;;1999.90;999.90;;;;;;;;;;5018971;28;20056;-90
2021/10/19 12:18:22;;;;;;;1999.90;999.90;;;;;;;;;;5018450;28;20116;-89
2021/10/19 12:20:49;;;;;;;1999.90;999.90;;;;;;;;;;5019584;28;20025;-91
2021/10/19 12:23:17;;;;;;;1999.90;999.90;;;;;;;;;;5017983;28;20030;-77
2021/10/19 12:25:52;;;;;;;1999.90;999.90;;;;;;;;;;5016470;28;20361;-77
2021/10/19 12:28:20;;;;;;;1999.90;999.90;;;;;;;;;;5034604;28;20025;-76
2021/10/19 12:30:47;;;;;;;1999.90;999.90;;;;;;;;;;5016662;28;20461;-78
2021/10/19 12:33:20;;;;;;;1999.90;999.90;;;;;;;;;;5016718;28;20030;-77
2021/10/19 12:35:54;;;;;;;1999.90;999.90;;;;;;;;;;5017969;28;20032;-86
2021/10/19 12:38:39;;;;;;;;;;;;;;;;;;5112508;27;20769;-85
2021/10/19 12:41:07;;;;;;;1999.90;999.90;;;;;;;;;;5111062;28;19961;-84
2021/10/19 12:43:33;;;;;;;1999.90;999.90;;;;;;;;;;5110688;28;20073;-87
2021/10/19 12:46:00;;;;;;;1999.90;999.90;;;;;;;;;;5110698;28;20085;-85
2021/10/19 12:48:32;;;;;;;1999.90;999.90;;;;;;;;;;5110722;28;20028;-87
2021/10/19 12:50:58;;;;;;;1999.90;999.90;;;;;;;;;;5110394;28;20024;-86
2021/10/19 12:53:24;;;;;;;1999.90;999.90;;;;;;;;;;5109967;28;20028;-86
2021/10/19 12:55:50;;;;;;;1999.90;999.90;;;;;;;;;;5110822;28;20122;-85
2021/10/19 12:58:16;;;;;;;1999.90;999.90;;;;;;;;;;5109694;28;20127;-86
2021/10/19 13:00:42;;;;;;;1999.90;999.90;;;;;;;;;;5109645;28;20065;-86
2021/10/19 13:03:09;;;;;;;1999.90;999.90;;;;;;;;;;5111281;28;20046;-86
2021/10/19 13:05:35;;;;;;;1999.90;999.90;;;;;;;;;;5110381;28;20035;-85
2021/10/19 13:08:02;;;;;;;1999.90;999.90;;;;;;;;;;5110519;28;20098;-84
2021/10/19 13:10:28;;;;;;;1999.90;999.90;;;;;;;;;;5110628;28;20519;-84
2021/10/19 13:12:54;;;;;;;1999.90;999.90;;;;;;;;;;5109981;28;20468;-85
2021/10/19 13:15:21;;;;;;;1999.90;999.90;;;;;;;;;;5109477;28;20024;-84
2021/10/19 13:17:47;;;;;;;1999.90;999.90;;;;;;;;;;5109897;28;20027;-87
2021/10/19 13:20:15;;;;;;;1999.90;999.90;;;;;;;;;;5109762;28;20069;-84
2021/10/19 13:22:44;;;;;;;1999.90;999.90;;;;;;;;;;5109200;28;20020;-86
2021/10/19 13:25:11;;;;;;;1999.90;999.90;;;;;;;;;;5108979;28;20050;-85
2021/10/19 13:27:37;;;;;;;1999.90;999.90;;;;;;;;;;5108816;28;20542;-87
2021/10/19 13:30:04;;;;;;;1999.90;999.90;;;;;;;;;;5108714;28;20098;-84
2021/10/19 13:32:30;;;;;;;1999.90;999.90;;;;;;;;;;5108884;28;20066;-86
2021/10/19 13:34:56;;;;;;;1999.90;999.90;;;;;;;;;;5109833;28;20012;-88
2021/10/19 13:37:22;;;;;;;1999.90;999.90;;;;;;;;;;5108278;28;20048;-78
2021/10/19 13:39:49;;;;;;;1999.90;999.90;;;;;;;;;;5108320;28;20031;-81